Time;durP1;ratioP1;P1;durP2;ratioP2;P2;SDS_P1;SDS_P2;PMS_P1;PMS_P2;Temp;Humidity;BMP_temperature;BMP_pressure;BME280_temperature;BME280_humidity;BME280_pressure;Samples;Min_cycle;Max_cycle;Signal;HPM_P1;HPM_P2
2022/04/12 00:01:01;;;;;;;5.97;5.25;;;3.30;99.90;;;;;;5017987;28;20194;-58
2022/04/12 00:03:27;;;;;;;5.43;4.65;;;3.30;99.90;;;;;;5013711;28;20221;-56
2022/04/12 00:05:53;;;;;;;6.22;5.53;;;3.20;99.90;;;;;;5009719;28;20643;-55
2022/04/12 00:08:19;;;;;;;6.00;5.32;;;3.20;99.90;;;;;;5023488;28;20182;-56
2022/04/12 00:10:45;;;;;;;5.55;4.95;;;3.20;99.90;;;;;;5017644;28;20203;-58
2022/04/12 00:13:12;;;;;;;5.90;5.40;;;3.20;99.90;;;;;;5015788;28;20184;-54
2022/04/12 00:15:38;;;;;;;6.20;5.60;;;3.10;99.90;;;;;;5028153;28;20414;-57
2022/04/12 00:20:48;;;;;;;5.90;5.30;;;3.10;99.90;;;;;;5011800;28;20216;-57
2022/04/12 00:23:14;;;;;;;5.90;5.40;;;3.10;99.90;;;;;;5016479;28;20184;-58
2022/04/12 00:25:44;;;;;;;6.47;5.00;;;3.10;99.90;;;;;;5021810;28;20179;-58
2022/04/12 00:28:10;;;;;;;5.97;5.38;;;3.00;99.90;;;;;;5020004;28;20757;-58
2022/04/12 00:30:36;;;;;;;6.60;5.70;;;3.00;99.90;;;;;;5017154;28;20637;-57
2022/04/12 00:33:02;;;;;;;6.33;5.73;;;3.00;99.90;;;;;;5019489;28;20207;-58
2022/04/12 00:35:27;;;;;;;7.07;5.57;;;3.00;99.90;;;;;;5016483;28;20206;-58
2022/04/12 00:37:54;;;;;;;6.37;5.77;;;2.90;99.90;;;;;;5018494;28;20268;-56
2022/04/12 00:40:24;;;;;;;6.28;5.65;;;2.90;99.90;;;;;;5028386;28;20187;-58
2022/04/12 00:42:51;;;;;;;6.78;5.75;;;2.90;99.90;;;;;;5027732;28;20707;-56
2022/04/12 00:45:17;;;;;;;6.22;5.63;;;2.80;99.90;;;;;;5008314;28;20666;-57
2022/04/12 00:47:44;;;;;;;6.07;5.47;;;2.80;99.90;;;;;;5019075;28;20229;-56
2022/04/12 00:50:11;;;;;;;6.70;5.85;;;2.80;99.90;;;;;;5014060;28;20179;-58
2022/04/12 00:52:43;;;;;;;7.38;6.10;;;2.70;99.90;;;;;;5018047;28;20817;-60
2022/04/12 00:55:09;;;;;;;7.00;6.30;;;2.70;99.90;;;;;;5027507;28;20675;-56
2022/04/12 00:57:36;;;;;;;6.97;6.27;;;2.60;99.90;;;;;;5029120;28;20191;-58
2022/04/12 01:00:05;;;;;;;6.97;5.90;;;2.60;99.90;;;;;;5012834;28;20445;-57
2022/04/12 01:02:32;;;;;;;6.38;5.78;;;2.60;99.90;;;;;;5011110;28;20183;-56
2022/04/12 01:05:00;;;;;;;6.82;5.72;;;2.60;99.90;;;;;;5029133;28;20265;-55
2022/04/12 01:07:26;;;;;;;7.75;6.50;;;2.50;99.90;;;;;;5011346;28;20198;-57
2022/04/12 01:09:52;;;;;;;6.90;6.10;;;2.50;99.90;;;;;;5026826;28;20945;-58
2022/04/12 01:12:21;;;;;;;7.75;5.85;;;2.50;99.90;;;;;;5010369;28;20681;-57
2022/04/12 01:14:46;;;;;;;8.23;6.05;;;2.50;99.90;;;;;;5025765;28;21019;-55
2022/04/12 01:17:12;;;;;;;7.27;6.07;;;2.50;99.90;;;;;;5027811;28;20178;-57
2022/04/12 01:19:37;;;;;;;6.90;6.00;;;2.40;99.90;;;;;;5026313;28;20287;-57
2022/04/12 01:22:05;;;;;;;7.27;6.00;;;2.50;99.90;;;;;;5016067;28;20210;-57
2022/04/12 01:24:32;;;;;;;7.32;6.22;;;2.40;99.90;;;;;;5028891;28;20201;-57
2022/04/12 01:26:58;;;;;;;7.38;5.60;;;2.40;99.90;;;;;;5021397;28;20823;-58
2022/04/12 01:29:24;;;;;;;7.17;6.47;;;2.40;99.90;;;;;;5025081;28;20189;-53
2022/04/12 01:31:49;;;;;;;6.93;6.22;;;2.40;99.90;;;;;;5019033;28;20551;-55
2022/04/12 01:34:15;;;;;;;7.30;5.67;;;2.30;99.90;;;;;;5028940;28;20528;-57
2022/04/12 01:36:40;;;;;;;6.70;5.97;;;2.30;99.90;;;;;;5021197;28;20179;-56
2022/04/12 01:39:06;;;;;;;6.83;5.70;;;2.30;99.90;;;;;;5022938;28;20191;-57
2022/04/12 01:41:32;;;;;;;6.37;5.73;;;2.30;99.90;;;;;;5028596;28;20187;-58
2022/04/12 01:43:57;;;;;;;8.20;5.83;;;2.30;99.90;;;;;;5019084;28;20242;-58
2022/04/12 01:46:23;;;;;;;6.97;6.27;;;2.30;99.90;;;;;;5007065;28;20529;-58
2022/04/12 01:48:49;;;;;;;6.80;5.50;;;2.20;99.90;;;;;;5012750;28;20594;-56
2022/04/12 01:51:15;;;;;;;7.03;6.32;;;2.20;99.90;;;;;;5025915;28;20195;-57
2022/04/12 01:53:42;;;;;;;7.22;5.97;;;2.20;99.90;;;;;;5020814;28;20528;-58
2022/04/12 01:56:07;;;;;;;7.97;6.70;;;2.10;99.90;;;;;;5017338;28;20226;-57
2022/04/12 01:58:34;;;;;;;7.40;5.93;;;2.10;99.90;;;;;;5011246;28;20183;-58
2022/04/12 02:01:00;;;;;;;8.77;6.80;;;2.10;99.90;;;;;;5024301;28;20310;-59
2022/04/12 02:03:25;;;;;;;7.83;6.10;;;2.10;99.90;;;;;;5015602;28;20662;-57
2022/04/12 02:05:51;;;;;;;6.63;6.00;;;2.10;99.90;;;;;;5022683;28;20179;-56
2022/04/12 02:08:17;;;;;;;6.73;6.03;;;2.10;99.90;;;;;;5030417;28;20266;-58
2022/04/12 02:10:43;;;;;;;8.07;6.15;;;2.10;99.90;;;;;;5032410;28;20243;-58
2022/04/12 02:13:09;;;;;;;7.60;6.40;;;2.10;99.90;;;;;;5032251;28;20576;-57
2022/04/12 02:15:34;;;;;;;6.80;5.83;;;2.10;99.90;;;;;;5032229;28;20471;-57
2022/04/12 02:18:00;;;;;;;6.23;5.63;;;2.10;99.90;;;;;;5032108;28;20174;-57
2022/04/12 02:20:26;;;;;;;8.00;6.43;;;2.10;99.90;;;;;;5020188;28;20273;-55
2022/04/12 02:22:51;;;;;;;8.20;7.40;;;2.00;99.90;;;;;;5032043;28;20175;-58
2022/04/12 02:25:17;;;;;;;6.80;5.87;;;2.00;99.90;;;;;;5023529;28;20186;-57
2022/04/12 02:27:42;;;;;;;7.10;6.00;;;2.00;99.90;;;;;;5006311;28;20176;-56
2022/04/12 02:30:09;;;;;;;6.50;5.83;;;2.00;99.90;;;;;;5015399;28;20197;-57
2022/04/12 02:32:34;;;;;;;8.00;6.20;;;2.00;99.90;;;;;;5010965;28;20200;-60
2022/04/12 02:35:00;;;;;;;7.70;6.83;;;1.90;99.90;;;;;;5025245;28;20186;-54
2022/04/12 02:37:27;;;;;;;8.50;6.30;;;2.00;99.90;;;;;;5017910;28;20276;-58
2022/04/12 02:39:52;;;;;;;7.85;6.55;;;2.00;99.90;;;;;;5002335;28;20300;-56
2022/04/12 02:42:18;;;;;;;7.43;5.70;;;2.00;99.90;;;;;;5003954;28;20990;-58
2022/04/12 02:44:43;;;;;;;8.10;6.60;;;1.90;99.90;;;;;;5011960;28;20454;-58
2022/04/12 02:47:09;;;;;;;11.10;6.70;;;1.90;99.90;;;;;;5013547;28;20206;-57
2022/04/12 02:49:35;;;;;;;9.37;7.17;;;1.80;99.90;;;;;;5017903;28;20230;-57
2022/04/12 02:52:00;;;;;;;7.30;6.50;;;1.80;99.90;;;;;;5029544;28;20229;-57
2022/04/12 02:54:26;;;;;;;7.40;5.93;;;1.80;99.90;;;;;;5016528;28;20227;-57
2022/04/12 02:56:51;;;;;;;7.63;6.33;;;1.80;99.90;;;;;;5024296;28;20192;-58
2022/04/12 02:59:17;;;;;;;6.90;6.20;;;1.80;99.90;;;;;;5016612;28;20233;-57
2022/04/12 03:01:42;;;;;;;9.93;6.90;;;1.80;99.90;;;;;;5024535;28;20655;-59
2022/04/12 03:04:08;;;;;;;7.40;6.60;;;1.70;99.90;;;;;;5020980;28;20654;-56
2022/04/12 03:06:34;;;;;;;7.10;6.37;;;1.70;99.90;;;;;;5031180;28;20186;-58
2022/04/12 03:08:59;;;;;;;6.97;6.17;;;1.70;99.90;;;;;;5021650;28;20210;-58
2022/04/12 03:11:25;;;;;;;7.80;6.50;;;1.70;99.90;;;;;;5025272;28;20199;-58
2022/04/12 03:13:51;;;;;;;6.93;6.00;;;1.70;99.90;;;;;;5028502;28;20179;-57
2022/04/12 03:16:17;;;;;;;9.02;7.18;;;1.70;99.90;;;;;;5025429;28;20176;-58
2022/04/12 03:18:43;;;;;;;7.60;6.50;;;1.70;99.90;;;;;;5023270;28;20176;-58
2022/04/12 03:21:08;;;;;;;8.83;6.60;;;1.70;99.90;;;;;;5023564;28;20301;-57
2022/04/12 03:23:34;;;;;;;6.93;5.87;;;1.70;99.90;;;;;;5019383;28;20190;-56
2022/04/12 03:25:59;;;;;;;7.33;5.90;;;1.70;99.90;;;;;;5030837;28;20186;-57
2022/04/12 03:28:25;;;;;;;9.00;6.53;;;1.70;99.90;;;;;;5030548;28;20194;-56
2022/04/12 03:30:50;;;;;;;7.33;6.23;;;1.70;99.90;;;;;;5019424;28;20206;-56
2022/04/12 03:33:16;;;;;;;7.90;6.33;;;1.70;99.90;;;;;;5010599;28;20176;-58
2022/04/12 03:35:43;;;;;;;7.17;6.47;;;1.70;99.90;;;;;;5020999;28;20194;-58
2022/04/12 03:38:08;;;;;;;8.65;6.85;;;1.70;99.90;;;;;;5015632;28;20187;-55
2022/04/12 03:40:34;;;;;;;12.17;7.53;;;1.60;99.90;;;;;;5020253;28;20179;-55
2022/04/12 03:43:01;;;;;;;7.63;6.83;;;1.60;99.90;;;;;;5015487;28;20179;-56
2022/04/12 03:45:27;;;;;;;8.43;6.50;;;1.60;99.90;;;;;;5029249;28;20317;-58
2022/04/12 03:47:53;;;;;;;9.75;7.07;;;1.70;99.90;;;;;;5015573;28;20176;-56
2022/04/12 03:50:18;;;;;;;8.13;6.23;;;1.70;99.90;;;;;;5010874;28;20653;-57
2022/04/12 03:52:44;;;;;;;8.63;6.23;;;1.60;99.90;;;;;;5021247;28;20293;-56
2022/04/12 03:55:12;;;;;;;9.20;7.20;;;1.60;99.90;;;;;;5019992;28;20230;-56
2022/04/12 03:57:38;;;;;;;8.45;6.72;;;1.60;99.90;;;;;;5018147;28;20265;-57
2022/04/12 04:00:08;;;;;;;8.05;6.70;;;1.60;99.90;;;;;;5020441;28;20556;-58
2022/04/12 04:02:36;;;;;;;9.07;7.45;;;1.60;99.90;;;;;;5030239;28;20547;-56
2022/04/12 04:05:04;;;;;;;8.80;8.00;;;1.50;99.90;;;;;;5024215;28;20921;-57
2022/04/12 04:07:29;;;;;;;9.55;7.38;;;1.50;99.90;;;;;;5027295;28;20721;-57
2022/04/12 04:09:55;;;;;;;9.47;7.57;;;1.50;99.90;;;;;;5030167;28;20317;-58
2022/04/12 04:12:22;;;;;;;9.33;7.40;;;1.50;99.90;;;;;;5013329;28;20689;-58
2022/04/12 04:14:48;;;;;;;8.80;7.13;;;1.50;99.90;;;;;;5010168;28;20183;-58
2022/04/12 04:17:14;;;;;;;9.30;7.10;;;1.50;99.90;;;;;;5021298;28;20183;-58
2022/04/12 04:19:39;;;;;;;9.27;7.60;;;1.50;99.90;;;;;;5012268;28;20580;-58
2022/04/12 04:22:05;;;;;;;7.70;6.77;;;1.60;99.90;;;;;;5006747;28;20199;-60
2022/04/12 04:24:31;;;;;;;8.03;7.13;;;1.60;99.90;;;;;;5023324;28;20191;-57
2022/04/12 04:26:56;;;;;;;11.63;10.30;;;1.60;99.90;;;;;;5016653;28;20191;-58
2022/04/12 04:29:23;;;;;;;10.70;8.40;;;1.70;99.90;;;;;;5020584;28;20195;-57
2022/04/12 04:31:50;;;;;;;11.07;8.90;;;1.80;99.90;;;;;;5014993;28;20665;-58
2022/04/12 04:34:16;;;;;;;9.80;8.30;;;1.90;99.90;;;;;;5011146;28;20199;-63
2022/04/12 04:36:42;;;;;;;8.38;7.50;;;1.90;99.90;;;;;;5014612;28;20596;-63
2022/04/12 04:39:07;;;;;;;8.13;7.00;;;1.90;99.90;;;;;;5029488;28;20190;-63
2022/04/12 04:41:33;;;;;;;9.53;7.80;;;1.90;99.90;;;;;;5025008;28;20194;-63
2022/04/12 04:43:58;;;;;;;10.57;7.73;;;2.00;99.90;;;;;;5006658;28;20190;-63
2022/04/12 04:46:24;;;;;;;9.53;7.70;;;2.00;99.90;;;;;;5022401;28;20238;-63
2022/04/12 04:48:49;;;;;;;11.40;7.77;;;2.10;99.90;;;;;;5015332;28;20700;-63
2022/04/12 04:51:15;;;;;;;8.57;7.67;;;2.10;99.90;;;;;;5011995;28;20203;-63
2022/04/12 04:53:42;;;;;;;10.13;8.47;;;2.10;99.90;;;;;;5022143;28;20654;-63
2022/04/12 04:56:08;;;;;;;8.63;7.72;;;2.10;99.90;;;;;;5014820;28;20241;-63
2022/04/12 04:58:34;;;;;;;8.80;6.67;;;2.20;99.90;;;;;;5029471;28;20183;-63
2022/04/12 05:01:00;;;;;;;8.77;7.07;;;2.20;99.90;;;;;;5021181;28;20631;-63
2022/04/12 05:03:27;;;;;;;10.18;7.47;;;2.30;99.90;;;;;;5019657;28;20425;-63
2022/04/12 05:05:52;;;;;;;9.57;7.47;;;2.30;99.90;;;;;;5028883;28;20199;-62
2022/04/12 05:08:18;;;;;;;8.70;6.90;;;2.40;99.90;;;;;;5026620;28;20252;-63
2022/04/12 05:10:44;;;;;;;10.13;8.13;;;2.50;99.90;;;;;;5008218;28;20222;-63
2022/04/12 05:13:09;;;;;;;8.20;7.07;;;2.50;99.90;;;;;;5018034;28;20208;-62
2022/04/12 05:15:35;;;;;;;8.90;7.40;;;2.60;99.90;;;;;;5026830;28;20190;-63
2022/04/12 05:18:00;;;;;;;8.30;7.37;;;2.60;99.90;;;;;;5010702;28;20541;-62
2022/04/12 05:20:26;;;;;;;8.93;7.33;;;2.70;99.90;;;;;;5023969;28;20183;-63
2022/04/12 05:22:53;;;;;;;8.83;7.10;;;2.80;99.90;;;;;;5033697;28;20171;-63
2022/04/12 05:25:18;;;;;;;10.32;7.25;;;2.90;99.90;;;;;;5022157;28;20430;-63
2022/04/12 05:27:44;;;;;;;7.80;6.97;;;3.00;99.90;;;;;;5030999;28;20556;-63
2022/04/12 05:30:16;;;;;;;11.37;7.87;;;3.10;99.90;;;;;;5031992;28;20265;-64
2022/04/12 05:32:42;;;;;;;8.98;7.25;;;3.20;99.90;;;;;;5021040;28;20241;-63
2022/04/12 05:35:09;;;;;;;8.20;6.60;;;3.30;99.90;;;;;;5014588;28;20195;-63
2022/04/12 05:37:43;;;;;;;7.85;6.15;;;3.50;99.90;;;;;;5013219;28;20237;-63
2022/04/12 05:40:10;;;;;;;7.63;6.25;;;3.70;99.90;;;;;;5015462;28;20598;-63
2022/04/12 05:42:36;;;;;;;7.45;6.28;;;3.80;99.90;;;;;;5014768;28;20262;-63
2022/04/12 05:45:02;;;;;;;7.90;6.70;;;3.90;99.90;;;;;;5014157;28;20199;-62
2022/04/12 05:47:27;;;;;;;7.00;6.30;;;4.10;99.90;;;;;;5013380;28;20538;-62
2022/04/12 05:49:54;;;;;;;7.60;6.90;;;4.40;99.90;;;;;;5012595;28;20183;-63
2022/04/12 05:52:19;;;;;;;7.70;6.80;;;4.50;99.90;;;;;;5014285;28;20206;-62
2022/04/12 05:54:46;;;;;;;7.00;6.40;;;4.70;99.90;;;;;;5013611;28;20226;-63
2022/04/12 05:57:12;;;;;;;7.93;6.60;;;4.80;99.90;;;;;;5013178;28;20180;-63
2022/04/12 05:59:37;;;;;;;7.67;6.87;;;5.00;99.90;;;;;;5014360;28;20178;-63
2022/04/12 06:02:04;;;;;;;7.35;6.65;;;5.10;99.90;;;;;;5014057;28;20540;-63
2022/04/12 06:04:29;;;;;;;7.67;6.80;;;5.20;99.90;;;;;;5013336;28;20187;-64
2022/04/12 06:06:55;;;;;;;8.03;7.03;;;5.30;99.90;;;;;;5015465;28;20571;-64
2022/04/12 06:09:20;;;;;;;7.67;6.90;;;5.40;99.90;;;;;;5032364;28;20190;-63
2022/04/12 06:11:46;;;;;;;7.60;6.30;;;5.70;99.90;;;;;;5030472;28;20704;-64
2022/04/12 06:14:11;;;;;;;7.17;6.43;;;5.80;99.90;;;;;;5034200;28;20195;-63
2022/04/12 06:16:37;;;;;;;7.00;6.30;;;6.00;99.40;;;;;;5029400;28;20601;-64
2022/04/12 06:19:03;;;;;;;7.63;6.90;;;6.20;98.70;;;;;;5013718;28;20195;-63
2022/04/12 06:21:28;;;;;;;7.33;6.63;;;6.40;98.00;;;;;;5014822;28;20188;-63
2022/04/12 06:23:54;;;;;;;7.40;6.80;;;6.50;97.00;;;;;;5028956;28;20195;-64
2022/04/12 06:26:19;;;;;;;7.03;6.43;;;6.70;96.00;;;;;;5019851;28;20266;-63
2022/04/12 06:28:45;;;;;;;6.97;6.23;;;6.80;95.40;;;;;;5016928;28;20191;-63
2022/04/12 06:31:10;;;;;;;7.23;6.53;;;6.90;94.80;;;;;;5011409;28;20298;-63
2022/04/12 06:33:36;;;;;;;7.50;6.90;;;7.10;94.30;;;;;;5011149;28;20191;-64
2022/04/12 06:36:01;;;;;;;7.17;6.47;;;7.20;93.70;;;;;;5012368;28;20167;-62
2022/04/12 06:38:27;;;;;;;7.30;6.70;;;7.30;93.50;;;;;;5011579;28;20186;-63
2022/04/12 06:40:52;;;;;;;7.03;6.40;;;7.40;93.20;;;;;;5008748;28;20190;-62
2022/04/12 06:43:18;;;;;;;5.90;5.40;;;7.50;92.20;;;;;;5000678;28;20812;-62
2022/04/12 06:45:43;;;;;;;6.90;6.30;;;7.70;92.10;;;;;;4992217;28;20213;-62
2022/04/12 06:48:09;;;;;;;8.43;6.57;;;7.80;91.50;;;;;;5006718;28;20191;-63
2022/04/12 06:50:35;;;;;;;6.93;5.90;;;7.90;90.70;;;;;;5004589;28;20266;-63
2022/04/12 06:53:03;;;;;;;6.60;5.80;;;8.10;89.50;;;;;;5012759;28;20915;-63
2022/04/12 06:55:29;;;;;;;6.87;6.17;;;8.20;88.30;;;;;;5023510;28;20377;-63
2022/04/12 06:57:55;;;;;;;7.10;6.50;;;8.30;87.30;;;;;;5011779;28;21386;-62
2022/04/12 07:00:21;;;;;;;6.90;6.20;;;8.40;86.40;;;;;;5021480;28;20510;-62
2022/04/12 07:02:46;;;;;;;7.87;6.10;;;8.50;85.60;;;;;;5028457;28;20289;-63
2022/04/12 07:05:12;;;;;;;7.07;6.47;;;8.70;84.50;;;;;;5010875;28;20206;-63
2022/04/12 07:07:39;;;;;;;7.43;6.73;;;8.80;82.80;;;;;;5011365;28;20646;-63
2022/04/12 07:10:07;;;;;;;6.63;6.03;;;8.80;82.30;;;;;;4999622;28;20540;-64
2022/04/12 07:12:33;;;;;;;7.80;6.53;;;9.00;81.50;;;;;;5023830;28;20584;-63
2022/04/12 07:14:58;;;;;;;7.30;6.60;;;9.10;80.70;;;;;;5025153;28;20892;-63
2022/04/12 07:17:24;;;;;;;6.90;6.30;;;9.10;79.90;;;;;;5021505;28;20179;-63
2022/04/12 07:19:49;;;;;;;6.30;5.80;;;9.30;79.70;;;;;;5027729;28;20175;-63
2022/04/12 07:22:16;;;;;;;7.53;6.83;;;9.40;78.30;;;;;;5019954;28;20183;-63
2022/04/12 07:24:41;;;;;;;8.23;7.43;;;9.50;78.80;;;;;;5027213;28;20206;-63
2022/04/12 07:27:07;;;;;;;7.80;7.00;;;9.60;77.40;;;;;;5010584;28;20452;-63
2022/04/12 07:29:32;;;;;;;7.27;6.63;;;9.70;77.50;;;;;;5021027;28;20219;-62
2022/04/12 07:31:58;;;;;;;7.67;6.97;;;9.90;76.80;;;;;;5012199;28;20211;-62
2022/04/12 07:34:24;;;;;;;7.60;7.00;;;10.00;73.60;;;;;;5024451;28;20221;-62
2022/04/12 07:36:53;;;;;;;8.80;7.67;;;10.10;72.30;;;;;;5010743;28;20446;-62
2022/04/12 07:39:20;;;;;;;8.00;7.30;;;10.10;72.70;;;;;;5021279;28;20269;-63
2022/04/12 07:41:47;;;;;;;7.83;7.03;;;10.30;71.30;;;;;;5028923;28;20430;-63
2022/04/12 07:44:13;;;;;;;8.43;7.63;;;10.40;70.10;;;;;;5030575;28;20426;-62
2022/04/12 07:46:39;;;;;;;7.60;6.90;;;10.50;70.10;;;;;;5012945;28;20484;-63
2022/04/12 07:49:04;;;;;;;8.43;7.73;;;10.60;69.30;;;;;;5002785;28;20418;-62
2022/04/12 07:51:30;;;;;;;8.10;7.40;;;10.70;68.30;;;;;;5016275;28;20286;-62
2022/04/12 07:53:55;;;;;;;7.00;6.50;;;10.90;67.90;;;;;;5009491;28;20584;-62
2022/04/12 07:56:21;;;;;;;7.77;7.07;;;11.10;66.90;;;;;;5012692;28;20251;-62
2022/04/12 07:58:46;;;;;;;7.27;6.67;;;11.20;65.10;;;;;;5030267;28;20186;-61
2022/04/12 08:01:12;;;;;;;8.23;7.63;;;11.40;64.40;;;;;;5014961;28;20281;-62
2022/04/12 08:03:40;;;;;;;8.70;7.03;;;11.60;63.70;;;;;;5010744;28;20504;-62
2022/04/12 08:06:05;;;;;;;7.67;7.07;;;11.70;62.70;;;;;;5010083;28;20172;-62
2022/04/12 08:08:32;;;;;;;9.20;8.27;;;11.80;61.60;;;;;;5010704;28;20422;-63
2022/04/12 08:10:58;;;;;;;9.60;8.30;;;12.00;61.40;;;;;;5009459;28;20213;-62
2022/04/12 08:13:24;;;;;;;7.70;7.00;;;12.20;60.50;;;;;;5010343;28;20410;-63
2022/04/12 08:15:49;;;;;;;7.80;7.10;;;12.40;59.60;;;;;;5010018;28;20453;-62
2022/04/12 08:18:15;;;;;;;7.90;7.20;;;12.60;58.60;;;;;;5009300;28;20227;-64
2022/04/12 08:20:41;;;;;;;7.77;7.07;;;12.70;57.70;;;;;;5010259;28;20180;-63
2022/04/12 08:23:06;;;;;;;7.80;7.20;;;12.90;57.70;;;;;;5010327;28;20198;-64
2022/04/12 08:25:32;;;;;;;7.70;7.00;;;13.00;57.20;;;;;;5010492;28;20204;-63
2022/04/12 08:27:58;;;;;;;7.60;6.97;;;13.20;56.20;;;;;;5003049;28;20591;-63
2022/04/12 08:30:23;;;;;;;8.20;7.50;;;13.40;54.90;;;;;;5003439;28;20191;-63
2022/04/12 08:32:49;;;;;;;8.00;7.40;;;13.70;54.40;;;;;;5009822;28;20207;-63
2022/04/12 08:35:15;;;;;;;7.93;7.23;;;14.00;53.20;;;;;;5010088;28;20172;-63
2022/04/12 08:37:40;;;;;;;7.77;7.27;;;14.20;52.30;;;;;;5008483;28;20183;-63
2022/04/12 08:40:07;;;;;;;7.90;7.30;;;14.50;51.80;;;;;;5009153;28;20195;-62
2022/04/12 08:42:32;;;;;;;7.60;6.90;;;14.70;50.70;;;;;;5009828;28;20450;-61
2022/04/12 08:45:01;;;;;;;7.57;6.87;;;14.90;51.40;;;;;;5009805;28;20853;-61
2022/04/12 08:47:27;;;;;;;7.30;6.77;;;15.30;51.10;;;;;;5009891;28;20183;-61
2022/04/12 08:49:53;;;;;;;7.63;6.93;;;15.80;48.60;;;;;;5009941;28;20491;-61
2022/04/12 08:52:19;;;;;;;7.27;6.67;;;16.20;47.50;;;;;;5009164;28;20895;-61
2022/04/12 08:54:45;;;;;;;7.13;6.60;;;16.60;45.00;;;;;;5007842;28;20715;-61
2022/04/12 08:57:12;;;;;;;6.63;6.23;;;17.00;44.50;;;;;;5015139;28;20196;-60
2022/04/12 08:59:39;;;;;;;8.17;7.40;;;17.40;42.60;;;;;;5008329;28;20477;-62
2022/04/12 09:02:09;;;;;;;7.20;6.60;;;17.50;41.40;;;;;;5009349;28;20426;-61
2022/04/12 09:04:36;;;;;;;7.10;6.40;;;17.80;39.80;;;;;;5008065;28;20449;-61
2022/04/12 09:07:05;;;;;;;6.90;6.30;;;18.10;39.60;;;;;;5026125;28;20424;-62
2022/04/12 09:09:31;;;;;;;7.23;6.63;;;18.40;38.00;;;;;;5016772;28;20478;-61
2022/04/12 09:12:03;;;;;;;6.37;5.87;;;18.80;34.50;;;;;;5013573;28;20493;-62
2022/04/12 09:14:44;;;;;;;6.77;6.27;;;18.80;31.10;;;;;;5017546;28;20410;-61
2022/04/12 09:17:12;;;;;;;6.50;5.90;;;19.40;30.70;;;;;;5009443;28;20764;-61
2022/04/12 09:19:51;;;;;;;6.80;6.30;;;19.60;28.90;;;;;;5009537;28;20458;-61
2022/04/12 09:22:25;;;;;;;6.50;6.00;;;20.10;28.50;;;;;;5009587;28;20488;-61
2022/04/12 09:24:54;;;;;;;7.13;6.60;;;20.50;27.90;;;;;;5006234;28;20453;-61
2022/04/12 09:27:25;;;;;;;7.07;6.10;;;21.10;27.60;;;;;;5009611;28;20410;-61
2022/04/12 09:29:56;;;;;;;6.40;5.90;;;21.50;26.10;;;;;;5008626;28;20890;-60
2022/04/12 09:32:24;;;;;;;6.30;5.80;;;21.60;25.70;;;;;;5009174;28;20546;-61
2022/04/12 09:34:50;;;;;;;6.73;6.30;;;21.80;24.80;;;;;;5003898;28;20463;-61
2022/04/12 09:37:25;;;;;;;7.17;6.57;;;21.50;23.40;;;;;;4989842;28;20422;-60
2022/04/12 09:40:00;;;;;;;7.00;6.50;;;21.20;23.80;;;;;;4996190;28;20424;-61
2022/04/12 09:42:43;;;;;;;8.00;7.40;;;21.20;24.50;;;;;;5009116;28;20418;-60
2022/04/12 09:45:16;;;;;;;7.00;6.50;;;21.20;24.50;;;;;;5005549;28;20446;-62
2022/04/12 09:47:42;;;;;;;7.40;6.87;;;21.30;24.10;;;;;;5009285;28;20424;-61
2022/04/12 09:50:10;;;;;;;7.10;6.60;;;21.80;25.30;;;;;;5007878;28;20429;-61
2022/04/12 09:52:36;;;;;;;6.90;6.40;;;22.10;24.10;;;;;;5009156;28;20464;-61
2022/04/12 09:55:03;;;;;;;6.80;6.40;;;22.50;24.20;;;;;;5011915;28;20466;-61
2022/04/12 09:57:28;;;;;;;7.10;6.50;;;22.70;22.60;;;;;;5009119;28;20454;-61
2022/04/12 09:59:56;;;;;;;6.80;6.30;;;23.00;22.90;;;;;;5025541;28;20499;-61
2022/04/12 10:02:26;;;;;;;7.30;6.73;;;22.90;22.10;;;;;;5018643;28;20368;-61
2022/04/12 10:04:54;;;;;;;6.93;6.40;;;23.30;23.10;;;;;;5025220;28;20477;-61
2022/04/12 10:07:21;;;;;;;7.00;6.50;;;22.60;21.20;;;;;;5012832;28;20476;-61
2022/04/12 10:09:51;;;;;;;6.83;6.43;;;22.60;22.20;;;;;;5030147;28;20802;-61
2022/04/12 10:12:18;;;;;;;6.87;6.37;;;23.00;23.20;;;;;;5032712;28;21195;-60
2022/04/12 10:14:45;;;;;;;6.87;6.37;;;22.40;20.50;;;;;;5027544;28;20482;-60
2022/04/12 10:17:13;;;;;;;7.37;6.77;;;22.40;21.90;;;;;;5012842;28;20508;-59
2022/04/12 10:19:39;;;;;;;7.00;6.60;;;22.90;22.50;;;;;;5011056;28;20429;-62
2022/04/12 10:22:05;;;;;;;6.70;6.10;;;23.30;21.40;;;;;;5010650;28;20434;-63
2022/04/12 10:24:32;;;;;;;7.13;6.63;;;24.10;21.60;;;;;;5012401;28;20415;-62
2022/04/12 10:26:58;;;;;;;6.30;5.90;;;24.50;20.80;;;;;;5011635;28;20240;-62
2022/04/12 10:29:23;;;;;;;6.37;5.97;;;24.80;20.20;;;;;;5011809;28;20908;-62
2022/04/12 10:31:59;;;;;;;7.20;6.70;;;24.30;19.00;;;;;;5010892;28;20522;-61
2022/04/12 10:34:25;;;;;;;7.87;7.27;;;24.20;19.90;;;;;;5011829;28;20184;-62
2022/04/12 10:37:05;;;;;;;6.97;6.47;;;24.50;20.30;;;;;;5011450;28;20475;-61
2022/04/12 10:39:37;;;;;;;7.50;7.00;;;24.50;19.20;;;;;;5011811;28;20206;-62
2022/04/12 10:42:25;;;;;;;7.60;7.00;;;23.20;19.30;;;;;;5010766;28;20435;-61
2022/04/12 10:44:55;;;;;;;7.53;6.93;;;23.90;19.40;;;;;;5012254;28;20531;-62
2022/04/12 10:47:27;;;;;;;7.20;6.70;;;24.30;19.10;;;;;;5009734;28;20442;-61
2022/04/12 10:49:57;;;;;;;7.57;7.07;;;25.00;19.80;;;;;;5009105;28;20455;-62
2022/04/12 10:52:41;;;;;;;6.80;6.40;;;25.40;18.80;;;;;;5011845;28;20458;-61
2022/04/12 10:55:09;;;;;;;6.90;6.50;;;24.60;18.20;;;;;;5011961;28;20484;-61
2022/04/12 10:57:35;;;;;;;7.33;6.83;;;25.10;18.70;;;;;;5014216;28;20426;-62
2022/04/12 11:00:21;;;;;;;7.10;6.60;;;25.40;18.20;;;;;;5011648;28;20428;-61
2022/04/12 11:02:59;;;;;;;8.07;7.47;;;25.20;17.60;;;;;;5026106;28;20185;-61
2022/04/12 11:05:37;;;;;;;7.57;6.97;;;24.90;19.00;;;;;;5021046;28;20436;-60
2022/04/12 11:08:14;;;;;;;8.43;7.73;;;25.00;18.10;;;;;;5008992;28;20793;-61
2022/04/12 11:11:00;;;;;;;7.47;6.87;;;24.70;18.30;;;;;;4992129;28;20921;-61
2022/04/12 11:13:29;;;;;;;7.60;7.10;;;24.90;18.70;;;;;;4991852;28;20486;-63
2022/04/12 11:15:59;;;;;;;8.40;7.80;;;25.40;18.40;;;;;;4991661;28;20405;-62
2022/04/12 11:18:54;;;;;;;8.90;8.13;;;24.90;17.20;;;;;;5006748;28;20417;-58
2022/04/12 11:21:22;;;;;;;8.50;7.90;;;23.90;18.10;;;;;;5011359;28;20425;-59
2022/04/12 11:24:00;;;;;;;8.53;7.83;;;24.40;19.60;;;;;;5011095;28;20429;-56
2022/04/12 11:26:52;;;;;;;7.77;7.20;;;24.30;18.10;;;;;;5011368;28;20837;-59
2022/04/12 11:29:20;;;;;;;8.10;7.50;;;24.70;19.20;;;;;;5010501;28;20431;-60
2022/04/12 11:31:57;;;;;;;8.37;7.77;;;24.40;18.60;;;;;;5010902;28;20471;-58
2022/04/12 11:34:27;;;;;;;8.37;7.73;;;24.30;18.70;;;;;;5010677;28;20499;-58
2022/04/12 11:36:56;;;;;;;8.40;7.70;;;25.10;18.70;;;;;;5011177;28;20405;-58
2022/04/12 11:39:24;;;;;;;8.13;7.53;;;26.20;17.40;;;;;;5011251;28;20784;-59
2022/04/12 11:41:55;;;;;;;8.37;7.77;;;25.10;17.90;;;;;;5011112;28;20788;-57
2022/04/12 11:44:24;;;;;;;8.47;7.77;;;25.20;19.20;;;;;;5011040;28;20408;-58
2022/04/12 11:47:04;;;;;;;8.33;7.73;;;25.10;19.00;;;;;;5011281;28;20527;-58
2022/04/12 11:49:38;;;;;;;9.10;8.40;;;25.60;19.20;;;;;;5010017;28;20444;-59
2022/04/12 11:52:08;;;;;;;9.47;8.77;;;25.00;17.90;;;;;;5010879;28;20465;-57
2022/04/12 11:54:39;;;;;;;8.67;7.97;;;24.10;18.40;;;;;;5009471;28;20484;-59
2022/04/12 11:57:20;;;;;;;9.17;8.50;;;25.10;19.60;;;;;;5010400;28;20438;-57
2022/04/12 11:59:49;;;;;;;9.67;8.97;;;26.00;18.40;;;;;;5007684;28;20418;-58
2022/04/12 12:02:17;;;;;;;7.97;7.37;;;25.70;16.90;;;;;;5015068;28;20503;-59
2022/04/12 12:04:50;;;;;;;8.10;7.40;;;26.10;18.10;;;;;;5018393;28;20529;-58
2022/04/12 12:07:17;;;;;;;7.50;7.00;;;27.10;17.40;;;;;;5030074;28;20417;-59
2022/04/12 12:10:00;;;;;;;8.80;8.10;;;27.50;17.40;;;;;;5021746;28;20423;-59
2022/04/12 12:12:37;;;;;;;7.63;7.13;;;27.30;15.90;;;;;;5010891;28;20547;-59
2022/04/12 12:15:13;;;;;;;7.20;6.70;;;27.40;17.30;;;;;;5021419;28;20449;-59
2022/04/12 12:17:40;;;;;;;8.10;7.60;;;27.60;16.30;;;;;;5014600;28;21283;-59
2022/04/12 12:20:07;;;;;;;9.53;8.73;;;27.80;16.70;;;;;;5019969;28;20422;-59
2022/04/12 12:22:37;;;;;;;8.40;7.80;;;27.80;16.00;;;;;;5012303;28;21344;-58
2022/04/12 12:25:03;;;;;;;7.53;7.03;;;28.00;15.60;;;;;;5029266;28;20508;-59
2022/04/12 12:27:34;;;;;;;8.37;7.77;;;28.40;15.90;;;;;;5012146;28;20423;-59
2022/04/12 12:30:10;;;;;;;7.40;6.90;;;28.70;15.20;;;;;;5017967;28;20429;-59
2022/04/12 12:32:38;;;;;;;6.60;6.10;;;29.30;14.20;;;;;;5014438;28;20430;-59
2022/04/12 12:35:08;;;;;;;7.53;6.87;;;29.80;14.80;;;;;;5020668;28;20888;-59
2022/04/12 12:37:34;;;;;;;7.00;6.50;;;29.80;14.30;;;;;;5026780;28;20528;-59
2022/04/12 12:40:00;;;;;;;7.47;6.97;;;29.70;14.70;;;;;;5008044;28;20428;-59
2022/04/12 12:42:35;;;;;;;7.10;6.70;;;29.70;13.50;;;;;;5028053;28;20979;-59
2022/04/12 12:45:15;;;;;;;7.60;7.10;;;29.50;14.40;;;;;;5029171;28;20240;-58
2022/04/12 12:47:43;;;;;;;7.10;6.60;;;29.70;14.10;;;;;;5029260;28;20472;-59
2022/04/12 12:50:14;;;;;;;7.60;7.10;;;29.60;13.00;;;;;;5028760;28;20418;-59
2022/04/12 12:52:41;;;;;;;8.40;7.80;;;29.60;12.80;;;;;;5025521;28;20435;-59
2022/04/12 12:55:15;;;;;;;7.97;7.37;;;28.50;13.30;;;;;;5013199;28;20475;-59
2022/04/12 12:57:50;;;;;;;7.10;6.60;;;27.60;13.70;;;;;;5010689;28;20422;-59